Terminal Aerodrome Forecast
Issued by NWS Wichita, KS

Home | Current Version | Previous Version | Graphics & Text | Print | Product List | Glossary On
Versions: 1 2 3 4 5 6 7 8 9 10 11 12 13 14 15 16 17 18
646
FTUS43 KICT 211128
TAFICT
TAF
KICT 211128Z 2112/2212 07017KT P6SM OVC080
     FM211500 07017KT P6SM VCSH OVC060
     FM211800 06017KT 6SM -RA VCTS OVC035CB
     FM212100 04013KT 5SM -RA SCT020 OVC035
      TEMPO 2121/2124 3SM TSRA OVC013CB
     FM220000 04017KT 4SM RA OVC008=

USA.gov is the U.S. government's official web portal to all federal, state and local government web resources and services.